sensor_id;sensor_type;location;lat;lon;timestamp;P1;durP1;ratioP1;P2;durP2;ratioP2
7693;SDS011;3889;48.162;11.510;2023-05-07T00:00:46;8.30;;;7.50;;
7693;SDS011;3889;48.162;11.510;2023-05-07T00:03:14;7.55;;;6.85;;
7693;SDS011;3889;48.162;11.510;2023-05-07T00:05:42;8.10;;;7.30;;
7693;SDS011;3889;48.162;11.510;2023-05-07T00:08:10;8.98;;;8.23;;
7693;SDS011;3889;48.162;11.510;2023-05-07T00:10:38;8.60;;;7.85;;
7693;SDS011;3889;48.162;11.510;2023-05-07T00:13:07;8.87;;;8.07;;
7693;SDS011;3889;48.162;11.510;2023-05-07T00:15:35;7.97;;;7.38;;
7693;SDS011;3889;48.162;11.510;2023-05-07T00:18:03;8.20;;;7.40;;
7693;SDS011;3889;48.162;11.510;2023-05-07T00:20:31;8.35;;;7.65;;
7693;SDS011;3889;48.162;11.510;2023-05-07T00:23:01;8.70;;;7.90;;
7693;SDS011;3889;48.162;11.510;2023-05-07T00:25:29;9.27;;;7.30;;
7693;SDS011;3889;48.162;11.510;2023-05-07T00:27:57;8.87;;;7.97;;
7693;SDS011;3889;48.162;11.510;2023-05-07T00:30:31;8.13;;;7.43;;
7693;SDS011;3889;48.162;11.510;2023-05-07T00:32:59;8.20;;;7.50;;
7693;SDS011;3889;48.162;11.510;2023-05-07T00:35:27;8.68;;;7.88;;
7693;SDS011;3889;48.162;11.510;2023-05-07T00:37:55;9.63;;;8.73;;
7693;SDS011;3889;48.162;11.510;2023-05-07T00:40:23;9.13;;;8.38;;
7693;SDS011;3889;48.162;11.510;2023-05-07T00:42:51;9.45;;;8.50;;
7693;SDS011;3889;48.162;11.510;2023-05-07T00:45:22;8.40;;;7.70;;
7693;SDS011;3889;48.162;11.510;2023-05-07T00:47:55;8.57;;;7.88;;
7693;SDS011;3889;48.162;11.510;2023-05-07T00:50:24;8.98;;;8.18;;
7693;SDS011;3889;48.162;11.510;2023-05-07T00:52:52;8.77;;;8.07;;
7693;SDS011;3889;48.162;11.510;2023-05-07T00:55:21;9.23;;;8.30;;
7693;SDS011;3889;48.162;11.510;2023-05-07T00:57:49;9.15;;;8.35;;
7693;SDS011;3889;48.162;11.510;2023-05-07T01:00:18;9.02;;;8.23;;
7693;SDS011;3889;48.162;11.510;2023-05-07T01:02:46;9.15;;;8.25;;
7693;SDS011;3889;48.162;11.510;2023-05-07T01:05:15;8.40;;;7.68;;
7693;SDS011;3889;48.162;11.510;2023-05-07T01:07:46;9.70;;;8.20;;
7693;SDS011;3889;48.162;11.510;2023-05-07T01:10:15;8.88;;;7.97;;
7693;SDS011;3889;48.162;11.510;2023-05-07T01:12:44;8.80;;;7.90;;
7693;SDS011;3889;48.162;11.510;2023-05-07T01:15:13;9.82;;;7.40;;
7693;SDS011;3889;48.162;11.510;2023-05-07T01:17:42;8.95;;;8.15;;
7693;SDS011;3889;48.162;11.510;2023-05-07T01:20:10;8.20;;;7.40;;
7693;SDS011;3889;48.162;11.510;2023-05-07T01:22:40;8.75;;;7.97;;
7693;SDS011;3889;48.162;11.510;2023-05-07T01:25:10;8.65;;;7.88;;
7693;SDS011;3889;48.162;11.510;2023-05-07T01:27:37;8.40;;;7.70;;
7693;SDS011;3889;48.162;11.510;2023-05-07T01:30:06;8.93;;;8.13;;
7693;SDS011;3889;48.162;11.510;2023-05-07T01:32:36;8.88;;;8.07;;
7693;SDS011;3889;48.162;11.510;2023-05-07T01:35:09;10.30;;;9.40;;
7693;SDS011;3889;48.162;11.510;2023-05-07T01:37:38;8.75;;;7.95;;
7693;SDS011;3889;48.162;11.510;2023-05-07T01:40:08;9.30;;;8.50;;
7693;SDS011;3889;48.162;11.510;2023-05-07T01:42:37;10.07;;;8.80;;
7693;SDS011;3889;48.162;11.510;2023-05-07T01:45:06;9.80;;;8.93;;
7693;SDS011;3889;48.162;11.510;2023-05-07T01:47:34;10.30;;;9.40;;
7693;SDS011;3889;48.162;11.510;2023-05-07T01:50:04;9.88;;;8.98;;
7693;SDS011;3889;48.162;11.510;2023-05-07T01:52:34;8.70;;;7.90;;
7693;SDS011;3889;48.162;11.510;2023-05-07T01:55:05;11.00;;;9.93;;
7693;SDS011;3889;48.162;11.510;2023-05-07T01:57:34;10.35;;;9.48;;
7693;SDS011;3889;48.162;11.510;2023-05-07T02:00:02;9.55;;;8.65;;
7693;SDS011;3889;48.162;11.510;2023-05-07T02:02:32;10.00;;;9.00;;
7693;SDS011;3889;48.162;11.510;2023-05-07T02:05:00;10.18;;;9.20;;
7693;SDS011;3889;48.162;11.510;2023-05-07T02:07:28;11.32;;;10.32;;
7693;SDS011;3889;48.162;11.510;2023-05-07T02:09:56;9.82;;;8.98;;
7693;SDS011;3889;48.162;11.510;2023-05-07T02:12:25;9.75;;;8.93;;
7693;SDS011;3889;48.162;11.510;2023-05-07T02:14:53;8.40;;;7.70;;
7693;SDS011;3889;48.162;11.510;2023-05-07T02:17:21;9.05;;;8.25;;
7693;SDS011;3889;48.162;11.510;2023-05-07T02:19:49;9.65;;;8.75;;
7693;SDS011;3889;48.162;11.510;2023-05-07T02:22:17;9.50;;;8.70;;
7693;SDS011;3889;48.162;11.510;2023-05-07T02:24:45;9.27;;;8.48;;
7693;SDS011;3889;48.162;11.510;2023-05-07T02:27:13;9.25;;;8.55;;
7693;SDS011;3889;48.162;11.510;2023-05-07T02:29:42;9.45;;;8.65;;
7693;SDS011;3889;48.162;11.510;2023-05-07T02:32:10;9.07;;;8.38;;
7693;SDS011;3889;48.162;11.510;2023-05-07T02:34:38;10.30;;;9.45;;
7693;SDS011;3889;48.162;11.510;2023-05-07T02:37:05;9.63;;;8.80;;
7693;SDS011;3889;48.162;11.510;2023-05-07T02:39:33;9.97;;;9.17;;
7693;SDS011;3889;48.162;11.510;2023-05-07T02:42:01;10.33;;;9.33;;
7693;SDS011;3889;48.162;11.510;2023-05-07T02:44:29;9.68;;;8.88;;
7693;SDS011;3889;48.162;11.510;2023-05-07T02:46:59;8.82;;;8.13;;
7693;SDS011;3889;48.162;11.510;2023-05-07T02:49:26;10.18;;;9.18;;
7693;SDS011;3889;48.162;11.510;2023-05-07T02:51:54;10.38;;;9.55;;
7693;SDS011;3889;48.162;11.510;2023-05-07T02:54:22;9.85;;;9.05;;
7693;SDS011;3889;48.162;11.510;2023-05-07T02:56:50;10.10;;;9.15;;
7693;SDS011;3889;48.162;11.510;2023-05-07T02:59:18;9.13;;;8.32;;
7693;SDS011;3889;48.162;11.510;2023-05-07T03:01:46;9.73;;;8.45;;
7693;SDS011;3889;48.162;11.510;2023-05-07T03:04:15;9.63;;;8.82;;
7693;SDS011;3889;48.162;11.510;2023-05-07T03:06:43;10.40;;;9.38;;
7693;SDS011;3889;48.162;11.510;2023-05-07T03:09:11;9.57;;;8.53;;
7693;SDS011;3889;48.162;11.510;2023-05-07T03:11:39;9.90;;;9.10;;
7693;SDS011;3889;48.162;11.510;2023-05-07T03:14:07;10.48;;;9.45;;
7693;SDS011;3889;48.162;11.510;2023-05-07T03:16:35;9.70;;;8.80;;
7693;SDS011;3889;48.162;11.510;2023-05-07T03:19:03;10.20;;;9.40;;
7693;SDS011;3889;48.162;11.510;2023-05-07T03:21:32;9.90;;;8.90;;
7693;SDS011;3889;48.162;11.510;2023-05-07T03:24:01;10.07;;;9.10;;
7693;SDS011;3889;48.162;11.510;2023-05-07T03:26:28;10.43;;;9.35;;
7693;SDS011;3889;48.162;11.510;2023-05-07T03:28:56;10.35;;;9.35;;
7693;SDS011;3889;48.162;11.510;2023-05-07T03:31:24;11.15;;;10.25;;
7693;SDS011;3889;48.162;11.510;2023-05-07T03:33:52;10.23;;;9.30;;
7693;SDS011;3889;48.162;11.510;2023-05-07T03:36:21;10.73;;;9.73;;
7693;SDS011;3889;48.162;11.510;2023-05-07T03:38:50;10.07;;;9.13;;
7693;SDS011;3889;48.162;11.510;2023-05-07T03:41:18;9.80;;;9.00;;
7693;SDS011;3889;48.162;11.510;2023-05-07T03:43:46;10.20;;;9.30;;
7693;SDS011;3889;48.162;11.510;2023-05-07T03:46:14;9.50;;;8.70;;
7693;SDS011;3889;48.162;11.510;2023-05-07T03:48:42;10.23;;;9.27;;
7693;SDS011;3889;48.162;11.510;2023-05-07T03:51:09;9.32;;;8.43;;
7693;SDS011;3889;48.162;11.510;2023-05-07T03:53:37;9.43;;;8.50;;
7693;SDS011;3889;48.162;11.510;2023-05-07T03:56:06;9.13;;;8.32;;
7693;SDS011;3889;48.162;11.510;2023-05-07T03:58:34;8.35;;;7.65;;
7693;SDS011;3889;48.162;11.510;2023-05-07T04:01:02;8.45;;;7.75;;
7693;SDS011;3889;48.162;11.510;2023-05-07T04:03:30;10.07;;;9.02;;
7693;SDS011;3889;48.162;11.510;2023-05-07T04:05:59;9.50;;;8.63;;
7693;SDS011;3889;48.162;11.510;2023-05-07T04:08:26;9.30;;;8.40;;
7693;SDS011;3889;48.162;11.510;2023-05-07T04:10:54;9.55;;;8.68;;
7693;SDS011;3889;48.162;11.510;2023-05-07T04:13:24;8.65;;;7.95;;
7693;SDS011;3889;48.162;11.510;2023-05-07T04:15:52;8.25;;;7.55;;
7693;SDS011;3889;48.162;11.510;2023-05-07T04:18:19;10.00;;;9.10;;
7693;SDS011;3889;48.162;11.510;2023-05-07T04:20:47;8.93;;;8.20;;
7693;SDS011;3889;48.162;11.510;2023-05-07T04:23:16;10.65;;;9.65;;
7693;SDS011;3889;48.162;11.510;2023-05-07T04:25:43;10.02;;;9.23;;
7693;SDS011;3889;48.162;11.510;2023-05-07T04:28:12;10.27;;;9.27;;
7693;SDS011;3889;48.162;11.510;2023-05-07T04:30:42;9.30;;;8.50;;
7693;SDS011;3889;48.162;11.510;2023-05-07T04:33:09;8.70;;;8.00;;
7693;SDS011;3889;48.162;11.510;2023-05-07T04:35:37;10.23;;;9.15;;
7693;SDS011;3889;48.162;11.510;2023-05-07T04:38:05;10.05;;;9.20;;
7693;SDS011;3889;48.162;11.510;2023-05-07T04:40:35;9.88;;;8.98;;
7693;SDS011;3889;48.162;11.510;2023-05-07T04:43:02;9.60;;;8.73;;
7693;SDS011;3889;48.162;11.510;2023-05-07T04:45:31;9.77;;;8.85;;
7693;SDS011;3889;48.162;11.510;2023-05-07T04:48:00;10.15;;;9.15;;
7693;SDS011;3889;48.162;11.510;2023-05-07T04:50:28;9.70;;;8.90;;
7693;SDS011;3889;48.162;11.510;2023-05-07T04:52:56;9.98;;;9.07;;
7693;SDS011;3889;48.162;11.510;2023-05-07T04:55:24;9.43;;;8.55;;
7693;SDS011;3889;48.162;11.510;2023-05-07T04:57:52;9.65;;;8.75;;
7693;SDS011;3889;48.162;11.510;2023-05-07T05:00:20;10.17;;;9.27;;
7693;SDS011;3889;48.162;11.510;2023-05-07T05:02:49;9.85;;;8.95;;
7693;SDS011;3889;48.162;11.510;2023-05-07T05:05:18;10.00;;;9.10;;
7693;SDS011;3889;48.162;11.510;2023-05-07T05:07:46;10.20;;;9.40;;
7693;SDS011;3889;48.162;11.510;2023-05-07T05:10:14;9.57;;;8.77;;
7693;SDS011;3889;48.162;11.510;2023-05-07T05:12:42;9.70;;;8.73;;
7693;SDS011;3889;48.162;11.510;2023-05-07T05:15:10;10.20;;;9.30;;
7693;SDS011;3889;48.162;11.510;2023-05-07T05:17:38;9.60;;;8.65;;
7693;SDS011;3889;48.162;11.510;2023-05-07T05:20:07;9.80;;;8.90;;
7693;SDS011;3889;48.162;11.510;2023-05-07T05:22:37;9.73;;;8.83;;
7693;SDS011;3889;48.162;11.510;2023-05-07T05:25:05;9.40;;;8.57;;
7693;SDS011;3889;48.162;11.510;2023-05-07T05:27:34;9.53;;;8.63;;
7693;SDS011;3889;48.162;11.510;2023-05-07T05:30:02;9.25;;;8.45;;
7693;SDS011;3889;48.162;11.510;2023-05-07T05:32:31;9.60;;;8.70;;
7693;SDS011;3889;48.162;11.510;2023-05-07T05:35:00;9.10;;;8.30;;
7693;SDS011;3889;48.162;11.510;2023-05-07T05:37:28;8.70;;;8.00;;
7693;SDS011;3889;48.162;11.510;2023-05-07T05:39:58;8.88;;;7.97;;
7693;SDS011;3889;48.162;11.510;2023-05-07T05:42:26;7.57;;;6.88;;
7693;SDS011;3889;48.162;11.510;2023-05-07T05:44:54;7.72;;;7.10;;
7693;SDS011;3889;48.162;11.510;2023-05-07T05:47:22;8.45;;;7.75;;
7693;SDS011;3889;48.162;11.510;2023-05-07T05:49:50;7.85;;;7.15;;
7693;SDS011;3889;48.162;11.510;2023-05-07T05:52:18;7.28;;;6.68;;
7693;SDS011;3889;48.162;11.510;2023-05-07T05:54:46;7.40;;;6.80;;
7693;SDS011;3889;48.162;11.510;2023-05-07T05:57:15;7.70;;;7.00;;
7693;SDS011;3889;48.162;11.510;2023-05-07T05:59:43;8.35;;;7.55;;
7693;SDS011;3889;48.162;11.510;2023-05-07T06:02:11;7.28;;;6.57;;
7693;SDS011;3889;48.162;11.510;2023-05-07T06:04:39;6.90;;;6.30;;
7693;SDS011;3889;48.162;11.510;2023-05-07T06:07:08;6.90;;;5.80;;
7693;SDS011;3889;48.162;11.510;2023-05-07T06:09:36;5.65;;;5.05;;
7693;SDS011;3889;48.162;11.510;2023-05-07T06:12:04;6.30;;;5.50;;
7693;SDS011;3889;48.162;11.510;2023-05-07T06:14:34;5.00;;;4.50;;
7693;SDS011;3889;48.162;11.510;2023-05-07T06:17:03;5.05;;;4.65;;
7693;SDS011;3889;48.162;11.510;2023-05-07T06:19:31;5.20;;;4.70;;
7693;SDS011;3889;48.162;11.510;2023-05-07T06:21:59;6.47;;;5.20;;
7693;SDS011;3889;48.162;11.510;2023-05-07T06:24:28;5.47;;;4.97;;
7693;SDS011;3889;48.162;11.510;2023-05-07T06:26:56;5.32;;;4.70;;
7693;SDS011;3889;48.162;11.510;2023-05-07T06:29:25;5.20;;;4.70;;
7693;SDS011;3889;48.162;11.510;2023-05-07T06:31:54;5.13;;;4.65;;
7693;SDS011;3889;48.162;11.510;2023-05-07T06:34:22;5.55;;;4.90;;
7693;SDS011;3889;48.162;11.510;2023-05-07T06:36:50;6.22;;;4.43;;
7693;SDS011;3889;48.162;11.510;2023-05-07T06:39:18;4.80;;;4.28;;
7693;SDS011;3889;48.162;11.510;2023-05-07T06:41:46;4.35;;;3.95;;
7693;SDS011;3889;48.162;11.510;2023-05-07T06:44:14;5.22;;;4.43;;
7693;SDS011;3889;48.162;11.510;2023-05-07T06:46:41;4.38;;;3.90;;
7693;SDS011;3889;48.162;11.510;2023-05-07T06:49:11;4.13;;;3.72;;
7693;SDS011;3889;48.162;11.510;2023-05-07T06:51:40;4.83;;;3.73;;
7693;SDS011;3889;48.162;11.510;2023-05-07T06:54:08;6.15;;;4.05;;
7693;SDS011;3889;48.162;11.510;2023-05-07T06:56:36;4.22;;;3.53;;
7693;SDS011;3889;48.162;11.510;2023-05-07T06:59:03;4.00;;;3.70;;
7693;SDS011;3889;48.162;11.510;2023-05-07T07:01:31;4.40;;;4.00;;
7693;SDS011;3889;48.162;11.510;2023-05-07T07:03:59;4.03;;;3.63;;
7693;SDS011;3889;48.162;11.510;2023-05-07T07:06:29;4.37;;;3.43;;
7693;SDS011;3889;48.162;11.510;2023-05-07T07:08:57;4.68;;;3.50;;
7693;SDS011;3889;48.162;11.510;2023-05-07T07:11:25;3.83;;;3.40;;
7693;SDS011;3889;48.162;11.510;2023-05-07T07:13:54;3.55;;;3.17;;
7693;SDS011;3889;48.162;11.510;2023-05-07T07:16:21;4.22;;;3.47;;
7693;SDS011;3889;48.162;11.510;2023-05-07T07:18:49;3.78;;;3.13;;
7693;SDS011;3889;48.162;11.510;2023-05-07T07:21:18;3.63;;;3.22;;
7693;SDS011;3889;48.162;11.510;2023-05-07T07:23:47;4.53;;;3.20;;
7693;SDS011;3889;48.162;11.510;2023-05-07T07:26:15;4.10;;;3.55;;
7693;SDS011;3889;48.162;11.510;2023-05-07T07:28:43;3.45;;;3.10;;
7693;SDS011;3889;48.162;11.510;2023-05-07T07:31:11;4.10;;;3.53;;
7693;SDS011;3889;48.162;11.510;2023-05-07T07:33:39;3.55;;;3.25;;
7693;SDS011;3889;48.162;11.510;2023-05-07T07:36:07;3.38;;;3.08;;
7693;SDS011;3889;48.162;11.510;2023-05-07T07:38:36;3.38;;;3.08;;
7693;SDS011;3889;48.162;11.510;2023-05-07T07:41:07;3.97;;;3.58;;
7693;SDS011;3889;48.162;11.510;2023-05-07T07:43:35;5.38;;;4.75;;
7693;SDS011;3889;48.162;11.510;2023-05-07T07:46:03;4.28;;;3.67;;
7693;SDS011;3889;48.162;11.510;2023-05-07T07:48:31;3.92;;;3.20;;
7693;SDS011;3889;48.162;11.510;2023-05-07T07:50:59;3.58;;;3.28;;
7693;SDS011;3889;48.162;11.510;2023-05-07T07:53:27;4.28;;;3.33;;
7693;SDS011;3889;48.162;11.510;2023-05-07T07:55:54;3.38;;;3.08;;
7693;SDS011;3889;48.162;11.510;2023-05-07T07:58:26;4.23;;;3.03;;
7693;SDS011;3889;48.162;11.510;2023-05-07T08:00:54;3.75;;;3.30;;
7693;SDS011;3889;48.162;11.510;2023-05-07T08:03:22;3.50;;;3.20;;
7693;SDS011;3889;48.162;11.510;2023-05-07T08:05:50;6.20;;;3.97;;
7693;SDS011;3889;48.162;11.510;2023-05-07T08:08:18;9.93;;;8.05;;
7693;SDS011;3889;48.162;11.510;2023-05-07T08:10:46;4.35;;;3.60;;
7693;SDS011;3889;48.162;11.510;2023-05-07T08:13:16;3.88;;;3.58;;
7693;SDS011;3889;48.162;11.510;2023-05-07T08:15:45;3.83;;;3.45;;
7693;SDS011;3889;48.162;11.510;2023-05-07T08:18:14;4.10;;;3.60;;
7693;SDS011;3889;48.162;11.510;2023-05-07T08:20:42;4.00;;;3.45;;
7693;SDS011;3889;48.162;11.510;2023-05-07T08:23:09;3.87;;;3.50;;
7693;SDS011;3889;48.162;11.510;2023-05-07T08:25:37;4.38;;;3.60;;
7693;SDS011;3889;48.162;11.510;2023-05-07T08:28:06;4.05;;;3.50;;
7693;SDS011;3889;48.162;11.510;2023-05-07T08:30:35;3.83;;;3.10;;
7693;SDS011;3889;48.162;11.510;2023-05-07T08:33:04;3.53;;;3.22;;
7693;SDS011;3889;48.162;11.510;2023-05-07T08:35:32;4.47;;;3.28;;
7693;SDS011;3889;48.162;11.510;2023-05-07T08:38:00;4.43;;;3.40;;
7693;SDS011;3889;48.162;11.510;2023-05-07T08:40:28;3.22;;;2.90;;
7693;SDS011;3889;48.162;11.510;2023-05-07T08:42:56;3.38;;;2.95;;
7693;SDS011;3889;48.162;11.510;2023-05-07T08:45:25;4.13;;;3.10;;
7693;SDS011;3889;48.162;11.510;2023-05-07T08:47:57;2.90;;;2.70;;
7693;SDS011;3889;48.162;11.510;2023-05-07T08:50:28;3.13;;;2.83;;
7693;SDS011;3889;48.162;11.510;2023-05-07T08:52:56;4.55;;;3.00;;
7693;SDS011;3889;48.162;11.510;2023-05-07T08:55:26;3.42;;;3.10;;
7693;SDS011;3889;48.162;11.510;2023-05-07T08:57:56;3.70;;;3.40;;
7693;SDS011;3889;48.162;11.510;2023-05-07T09:00:24;3.20;;;2.90;;
7693;SDS011;3889;48.162;11.510;2023-05-07T09:02:52;4.47;;;3.10;;
7693;SDS011;3889;48.162;11.510;2023-05-07T09:05:20;4.40;;;3.10;;
7693;SDS011;3889;48.162;11.510;2023-05-07T09:07:49;3.45;;;3.15;;
7693;SDS011;3889;48.162;11.510;2023-05-07T09:10:20;6.25;;;3.30;;
7693;SDS011;3889;48.162;11.510;2023-05-07T09:12:48;3.78;;;3.22;;
7693;SDS011;3889;48.162;11.510;2023-05-07T09:15:16;3.87;;;3.00;;
7693;SDS011;3889;48.162;11.510;2023-05-07T09:17:46;3.28;;;2.97;;
7693;SDS011;3889;48.162;11.510;2023-05-07T09:20:16;3.53;;;3.20;;
7693;SDS011;3889;48.162;11.510;2023-05-07T09:22:43;4.10;;;3.63;;
7693;SDS011;3889;48.162;11.510;2023-05-07T09:25:13;4.30;;;3.30;;
7693;SDS011;3889;48.162;11.510;2023-05-07T09:27:41;3.60;;;2.92;;
7693;SDS011;3889;48.162;11.510;2023-05-07T09:30:10;5.03;;;3.10;;
7693;SDS011;3889;48.162;11.510;2023-05-07T09:32:38;3.45;;;2.90;;
7693;SDS011;3889;48.162;11.510;2023-05-07T09:35:08;3.10;;;2.53;;
7693;SDS011;3889;48.162;11.510;2023-05-07T09:37:42;3.05;;;2.47;;
7693;SDS011;3889;48.162;11.510;2023-05-07T09:40:21;3.90;;;2.60;;
7693;SDS011;3889;48.162;11.510;2023-05-07T09:42:49;4.05;;;3.42;;
7693;SDS011;3889;48.162;11.510;2023-05-07T09:45:21;3.10;;;2.80;;
7693;SDS011;3889;48.162;11.510;2023-05-07T09:47:49;3.00;;;2.70;;
7693;SDS011;3889;48.162;11.510;2023-05-07T09:50:20;4.05;;;2.95;;
7693;SDS011;3889;48.162;11.510;2023-05-07T09:52:52;3.10;;;2.90;;
7693;SDS011;3889;48.162;11.510;2023-05-07T09:55:23;3.50;;;3.17;;
7693;SDS011;3889;48.162;11.510;2023-05-07T09:57:51;2.78;;;2.30;;
7693;SDS011;3889;48.162;11.510;2023-05-07T10:00:21;3.30;;;2.00;;
7693;SDS011;3889;48.162;11.510;2023-05-07T10:02:50;2.40;;;2.20;;
7693;SDS011;3889;48.162;11.510;2023-05-07T10:05:19;2.38;;;1.90;;
7693;SDS011;3889;48.162;11.510;2023-05-07T10:07:48;3.20;;;2.00;;
7693;SDS011;3889;48.162;11.510;2023-05-07T10:10:18;2.92;;;2.30;;
7693;SDS011;3889;48.162;11.510;2023-05-07T10:12:47;2.70;;;2.50;;
7693;SDS011;3889;48.162;11.510;2023-05-07T10:15:16;1.85;;;1.63;;
7693;SDS011;3889;48.162;11.510;2023-05-07T10:17:45;2.13;;;1.73;;
7693;SDS011;3889;48.162;11.510;2023-05-07T10:20:13;1.60;;;1.50;;
7693;SDS011;3889;48.162;11.510;2023-05-07T10:22:43;2.08;;;1.70;;
7693;SDS011;3889;48.162;11.510;2023-05-07T10:25:13;1.80;;;1.60;;
7693;SDS011;3889;48.162;11.510;2023-05-07T10:27:43;2.00;;;1.80;;
7693;SDS011;3889;48.162;11.510;2023-05-07T10:30:17;5.75;;;2.58;;
7693;SDS011;3889;48.162;11.510;2023-05-07T10:33:01;3.57;;;2.50;;
7693;SDS011;3889;48.162;11.510;2023-05-07T10:35:43;2.70;;;2.10;;
7693;SDS011;3889;48.162;11.510;2023-05-07T10:38:12;2.40;;;1.77;;
7693;SDS011;3889;48.162;11.510;2023-05-07T10:40:40;2.38;;;1.80;;
7693;SDS011;3889;48.162;11.510;2023-05-07T10:43:08;4.70;;;3.00;;
7693;SDS011;3889;48.162;11.510;2023-05-07T10:45:38;3.03;;;2.20;;
7693;SDS011;3889;48.162;11.510;2023-05-07T10:48:06;2.60;;;1.80;;
7693;SDS011;3889;48.162;11.510;2023-05-07T10:50:41;2.58;;;1.88;;
7693;SDS011;3889;48.162;11.510;2023-05-07T10:53:22;2.63;;;1.75;;
7693;SDS011;3889;48.162;11.510;2023-05-07T11:02:00;3.13;;;2.13;;
7693;SDS011;3889;48.162;11.510;2023-05-07T11:04:30;3.10;;;1.80;;
7693;SDS011;3889;48.162;11.510;2023-05-07T11:10:00;2.15;;;1.60;;
7693;SDS011;3889;48.162;11.510;2023-05-07T11:12:46;3.30;;;2.28;;
7693;SDS011;3889;48.162;11.510;2023-05-07T11:15:39;2.78;;;1.80;;
7693;SDS011;3889;48.162;11.510;2023-05-07T11:18:11;2.05;;;1.85;;
7693;SDS011;3889;48.162;11.510;2023-05-07T11:20:50;3.10;;;2.30;;
7693;SDS011;3889;48.162;11.510;2023-05-07T11:26:28;2.67;;;1.90;;
7693;SDS011;3889;48.162;11.510;2023-05-07T11:28:57;2.65;;;2.00;;
7693;SDS011;3889;48.162;11.510;2023-05-07T11:31:27;2.85;;;2.13;;
7693;SDS011;3889;48.162;11.510;2023-05-07T11:33:57;2.40;;;1.90;;
7693;SDS011;3889;48.162;11.510;2023-05-07T11:36:25;2.35;;;2.10;;
7693;SDS011;3889;48.162;11.510;2023-05-07T11:38:58;2.90;;;2.60;;
7693;SDS011;3889;48.162;11.510;2023-05-07T11:41:33;3.58;;;2.30;;
7693;SDS011;3889;48.162;11.510;2023-05-07T11:44:02;3.00;;;2.15;;
7693;SDS011;3889;48.162;11.510;2023-05-07T11:46:30;3.10;;;2.03;;
7693;SDS011;3889;48.162;11.510;2023-05-07T11:49:00;3.30;;;2.43;;
7693;SDS011;3889;48.162;11.510;2023-05-07T11:51:28;2.67;;;2.00;;
7693;SDS011;3889;48.162;11.510;2023-05-07T11:53:57;4.40;;;3.40;;
7693;SDS011;3889;48.162;11.510;2023-05-07T11:56:25;4.55;;;3.90;;
7693;SDS011;3889;48.162;11.510;2023-05-07T11:58:53;2.93;;;2.60;;
7693;SDS011;3889;48.162;11.510;2023-05-07T12:01:21;2.63;;;2.42;;
7693;SDS011;3889;48.162;11.510;2023-05-07T12:03:48;2.40;;;2.20;;
7693;SDS011;3889;48.162;11.510;2023-05-07T12:06:18;3.00;;;2.60;;
7693;SDS011;3889;48.162;11.510;2023-05-07T12:08:46;2.60;;;2.40;;
7693;SDS011;3889;48.162;11.510;2023-05-07T12:11:15;2.30;;;2.10;;
7693;SDS011;3889;48.162;11.510;2023-05-07T12:13:48;2.85;;;2.20;;
7693;SDS011;3889;48.162;11.510;2023-05-07T12:16:17;3.50;;;2.20;;
7693;SDS011;3889;48.162;11.510;2023-05-07T12:18:45;2.55;;;2.28;;
7693;SDS011;3889;48.162;11.510;2023-05-07T12:21:14;3.30;;;2.30;;
7693;SDS011;3889;48.162;11.510;2023-05-07T12:23:44;3.05;;;2.15;;
7693;SDS011;3889;48.162;11.510;2023-05-07T12:26:12;4.00;;;2.17;;
7693;SDS011;3889;48.162;11.510;2023-05-07T12:28:40;4.20;;;2.53;;
7693;SDS011;3889;48.162;11.510;2023-05-07T12:31:08;2.67;;;2.20;;
7693;SDS011;3889;48.162;11.510;2023-05-07T12:33:36;3.70;;;2.10;;
7693;SDS011;3889;48.162;11.510;2023-05-07T12:36:05;2.45;;;2.00;;
7693;SDS011;3889;48.162;11.510;2023-05-07T12:38:35;2.80;;;1.98;;
7693;SDS011;3889;48.162;11.510;2023-05-07T12:41:05;2.50;;;1.80;;
7693;SDS011;3889;48.162;11.510;2023-05-07T12:43:34;2.90;;;2.25;;
7693;SDS011;3889;48.162;11.510;2023-05-07T12:46:03;2.20;;;1.75;;
7693;SDS011;3889;48.162;11.510;2023-05-07T12:48:32;3.13;;;2.00;;
7693;SDS011;3889;48.162;11.510;2023-05-07T12:51:01;3.13;;;1.92;;
7693;SDS011;3889;48.162;11.510;2023-05-07T12:53:29;2.13;;;1.92;;
7693;SDS011;3889;48.162;11.510;2023-05-07T12:55:57;3.37;;;2.73;;
7693;SDS011;3889;48.162;11.510;2023-05-07T12:58:28;5.07;;;3.27;;
7693;SDS011;3889;48.162;11.510;2023-05-07T13:00:58;3.03;;;2.10;;
7693;SDS011;3889;48.162;11.510;2023-05-07T13:03:28;1.90;;;1.70;;
7693;SDS011;3889;48.162;11.510;2023-05-07T13:05:58;5.45;;;1.90;;
7693;SDS011;3889;48.162;11.510;2023-05-07T13:08:28;4.03;;;2.00;;
7693;SDS011;3889;48.162;11.510;2023-05-07T13:10:57;2.43;;;2.00;;
7693;SDS011;3889;48.162;11.510;2023-05-07T13:13:30;2.63;;;1.90;;
7693;SDS011;3889;48.162;11.510;2023-05-07T13:15:59;3.03;;;1.90;;
7693;SDS011;3889;48.162;11.510;2023-05-07T13:18:29;1.93;;;1.77;;
7693;SDS011;3889;48.162;11.510;2023-05-07T13:20:58;2.17;;;1.70;;
7693;SDS011;3889;48.162;11.510;2023-05-07T13:23:27;1.50;;;1.40;;
7693;SDS011;3889;48.162;11.510;2023-05-07T13:25:55;2.70;;;1.63;;
7693;SDS011;3889;48.162;11.510;2023-05-07T13:28:23;2.78;;;1.98;;
7693;SDS011;3889;48.162;11.510;2023-05-07T13:30:53;2.40;;;1.73;;
7693;SDS011;3889;48.162;11.510;2023-05-07T13:33:21;3.78;;;2.72;;
7693;SDS011;3889;48.162;11.510;2023-05-07T13:35:50;2.50;;;1.77;;
7693;SDS011;3889;48.162;11.510;2023-05-07T13:38:18;2.10;;;1.52;;
7693;SDS011;3889;48.162;11.510;2023-05-07T13:40:47;2.37;;;1.80;;
7693;SDS011;3889;48.162;11.510;2023-05-07T13:43:15;2.00;;;1.60;;
7693;SDS011;3889;48.162;11.510;2023-05-07T13:45:43;3.47;;;2.40;;
7693;SDS011;3889;48.162;11.510;2023-05-07T13:48:13;2.90;;;2.00;;
7693;SDS011;3889;48.162;11.510;2023-05-07T13:50:41;2.13;;;1.60;;
7693;SDS011;3889;48.162;11.510;2023-05-07T13:53:09;3.00;;;1.80;;
7693;SDS011;3889;48.162;11.510;2023-05-07T13:55:36;2.63;;;1.85;;
7693;SDS011;3889;48.162;11.510;2023-05-07T13:58:04;2.47;;;1.60;;
7693;SDS011;3889;48.162;11.510;2023-05-07T14:00:33;2.40;;;1.73;;
7693;SDS011;3889;48.162;11.510;2023-05-07T14:03:01;2.10;;;1.80;;
7693;SDS011;3889;48.162;11.510;2023-05-07T14:05:30;2.80;;;1.90;;
7693;SDS011;3889;48.162;11.510;2023-05-07T14:07:59;2.65;;;2.00;;
7693;SDS011;3889;48.162;11.510;2023-05-07T14:10:27;2.45;;;2.00;;
7693;SDS011;3889;48.162;11.510;2023-05-07T14:12:55;3.97;;;2.00;;
7693;SDS011;3889;48.162;11.510;2023-05-07T14:15:23;2.13;;;1.92;;
7693;SDS011;3889;48.162;11.510;2023-05-07T14:17:50;3.13;;;2.00;;
7693;SDS011;3889;48.162;11.510;2023-05-07T14:20:18;2.50;;;1.90;;
7693;SDS011;3889;48.162;11.510;2023-05-07T14:22:48;2.35;;;2.05;;
7693;SDS011;3889;48.162;11.510;2023-05-07T14:25:16;2.47;;;1.88;;
7693;SDS011;3889;48.162;11.510;2023-05-07T14:27:45;2.13;;;1.92;;
7693;SDS011;3889;48.162;11.510;2023-05-07T14:30:12;2.28;;;2.08;;
7693;SDS011;3889;48.162;11.510;2023-05-07T14:32:40;2.40;;;1.80;;
7693;SDS011;3889;48.162;11.510;2023-05-07T14:35:08;2.47;;;2.00;;
7693;SDS011;3889;48.162;11.510;2023-05-07T14:37:37;4.53;;;3.47;;
7693;SDS011;3889;48.162;11.510;2023-05-07T14:40:07;2.88;;;2.40;;
7693;SDS011;3889;48.162;11.510;2023-05-07T14:42:36;3.45;;;2.40;;
7693;SDS011;3889;48.162;11.510;2023-05-07T14:45:04;3.67;;;2.22;;
7693;SDS011;3889;48.162;11.510;2023-05-07T14:47:32;3.33;;;2.55;;
7693;SDS011;3889;48.162;11.510;2023-05-07T14:50:00;3.10;;;2.50;;
7693;SDS011;3889;48.162;11.510;2023-05-07T14:52:28;2.63;;;2.42;;
7693;SDS011;3889;48.162;11.510;2023-05-07T14:54:56;2.80;;;2.47;;
7693;SDS011;3889;48.162;11.510;2023-05-07T14:57:25;4.07;;;2.47;;
7693;SDS011;3889;48.162;11.510;2023-05-07T14:59:58;3.22;;;2.30;;
7693;SDS011;3889;48.162;11.510;2023-05-07T15:02:26;3.38;;;2.55;;
7693;SDS011;3889;48.162;11.510;2023-05-07T15:04:54;3.78;;;2.38;;
7693;SDS011;3889;48.162;11.510;2023-05-07T15:07:22;3.08;;;2.50;;
7693;SDS011;3889;48.162;11.510;2023-05-07T15:09:49;2.58;;;2.38;;
7693;SDS011;3889;48.162;11.510;2023-05-07T15:12:17;5.40;;;3.88;;
7693;SDS011;3889;48.162;11.510;2023-05-07T15:14:47;3.00;;;2.70;;
7693;SDS011;3889;48.162;11.510;2023-05-07T15:17:14;3.17;;;2.72;;
7693;SDS011;3889;48.162;11.510;2023-05-07T15:19:42;4.43;;;2.65;;
7693;SDS011;3889;48.162;11.510;2023-05-07T15:22:10;3.50;;;3.10;;